createdAt,value
2022-09-13T00:00:17.984Z,54.71
2022-09-13T00:01:17.971Z,55.16
2022-09-13T00:02:18.003Z,55.95
2022-09-13T00:03:17.975Z,55.98
2022-09-13T00:04:17.930Z,56.48
2022-09-13T00:05:17.926Z,56.57
2022-09-13T00:06:17.915Z,57.33
2022-09-13T00:07:17.911Z,57.73
2022-09-13T00:08:17.899Z,57.6
2022-09-13T00:09:17.909Z,57
2022-09-13T00:10:17.877Z,56.45
2022-09-13T00:11:25.483Z,55.53
2022-09-13T00:12:17.852Z,54.93
2022-09-13T00:13:17.834Z,54.03
2022-09-13T00:14:17.825Z,55.76
2022-09-13T00:15:17.819Z,55.95
2022-09-13T00:16:17.810Z,55.95
2022-09-13T00:17:17.801Z,56.25
2022-09-13T00:18:17.790Z,56.15
2022-09-13T00:19:17.775Z,56.05
2022-09-13T00:20:17.763Z,56.68
2022-09-13T00:21:17.757Z,56.27
2022-09-13T00:22:17.744Z,56.08
2022-09-13T00:23:17.734Z,56.27
2022-09-13T00:24:17.737Z,55.76
2022-09-13T00:25:17.709Z,56.05
2022-09-13T00:26:17.698Z,54.83
2022-09-13T00:27:17.688Z,55.1
2022-09-13T00:28:17.680Z,54.18
2022-09-13T00:29:17.665Z,53.76
2022-09-13T00:30:17.659Z,52.51
2022-09-13T00:31:17.646Z,51.89
2022-09-13T00:32:17.638Z,53.11
2022-09-13T00:33:17.620Z,52.61
2022-09-13T00:34:17.614Z,52.51
2022-09-13T00:35:17.603Z,53.53
2022-09-13T00:36:17.594Z,53.88
2022-09-13T00:37:17.582Z,54.18
2022-09-13T00:38:17.571Z,54.8
2022-09-13T00:39:17.556Z,54.71
2022-09-13T00:40:17.558Z,54.71
2022-09-13T00:41:17.541Z,55.28
2022-09-13T00:42:17.529Z,55.78
2022-09-13T00:43:17.514Z,57.2
2022-09-13T00:44:17.500Z,58.36
2022-09-13T00:45:17.498Z,58.98
2022-09-13T00:46:17.492Z,59.21
2022-09-13T00:47:17.470Z,59.61
2022-09-13T00:48:17.457Z,60.11
2022-09-13T00:49:17.452Z,60.53
2022-09-13T00:50:17.438Z,61.59
2022-09-13T00:51:17.430Z,61.79
2022-09-13T00:52:17.422Z,61.59
2022-09-13T00:53:17.410Z,61.46
2022-09-13T00:54:17.396Z,61.16
2022-09-13T00:55:17.392Z,60.03
2022-09-13T00:56:17.380Z,60.83
2022-09-13T00:57:17.368Z,60.11
2022-09-13T00:58:17.363Z,59.68
2022-09-13T00:59:17.344Z,60.11
2022-09-13T01:00:17.328Z,59.28
2022-09-13T01:01:17.364Z,58.23
2022-09-13T01:02:17.313Z,57.37
2022-09-13T01:03:17.299Z,57
2022-09-13T01:04:17.291Z,58.06
2022-09-13T01:05:17.280Z,58.33
2022-09-13T01:06:17.268Z,57.73
2022-09-13T01:07:17.264Z,57.23
2022-09-13T01:08:17.249Z,60.03
2022-09-13T01:09:17.232Z,61.13
2022-09-13T01:10:17.224Z,59.7
2022-09-13T01:11:17.209Z,59.28
2022-09-13T01:12:17.202Z,59.58
2022-09-13T01:13:17.188Z,60.14
2022-09-13T01:14:17.176Z,59.38
2022-09-13T01:15:17.169Z,60.03
2022-09-13T01:16:17.162Z,60.77
2022-09-13T01:17:17.153Z,61.19
2022-09-13T01:18:17.136Z,60.74
2022-09-13T01:19:17.125Z,59.58
2022-09-13T01:20:17.115Z,59.61
2022-09-13T01:21:17.106Z,61.49
2022-09-13T01:22:17.122Z,61.36
2022-09-13T01:23:17.147Z,61.33
2022-09-13T01:24:17.074Z,59.88
2022-09-13T01:25:17.061Z,58.36
2022-09-13T01:26:17.064Z,58.55
2022-09-13T01:27:17.043Z,59.61
2022-09-13T01:28:17.030Z,61.16
2022-09-13T01:29:17.023Z,61.89
2022-09-13T01:30:17.008Z,61.79
2022-09-13T01:31:17.000Z,59.98
2022-09-13T01:32:16.990Z,58.88
2022-09-13T01:33:16.985Z,59.51
2022-09-13T01:34:16.969Z,60
2022-09-13T01:35:16.956Z,59.18
2022-09-13T01:36:16.950Z,59.18
2022-09-13T01:37:16.939Z,58.23
2022-09-13T01:38:16.933Z,59.01
2022-09-13T01:39:16.924Z,60.77
2022-09-13T01:40:16.904Z,61.57
2022-09-13T01:41:16.887Z,61.57
2022-09-13T01:42:16.879Z,60.83
2022-09-13T01:43:16.874Z,61.66
2022-09-13T01:44:16.860Z,61.29
2022-09-13T01:45:16.863Z,63.06
2022-09-13T01:46:16.834Z,62.59
2022-09-13T01:47:16.821Z,61.26
2022-09-13T01:48:16.811Z,61.54
2022-09-13T01:49:16.804Z,59.88
2022-09-13T01:50:16.796Z,60.11
2022-09-13T01:51:16.784Z,60.08
2022-09-13T01:52:16.774Z,58.33
2022-09-13T01:53:16.770Z,58.1
2022-09-13T01:54:16.760Z,56.65
2022-09-13T01:55:16.738Z,55.63
2022-09-13T01:56:16.737Z,55.13
2022-09-13T01:57:16.721Z,57.63
2022-09-13T01:58:16.713Z,58.53
2022-09-13T01:59:16.695Z,58.12
2022-09-13T02:00:16.688Z,58.2
2022-09-13T02:01:16.678Z,57.57
2022-09-13T02:02:16.669Z,57.07
2022-09-13T02:03:16.654Z,57.28
2022-09-13T02:04:16.646Z,56.68
2022-09-13T02:05:16.634Z,56.35
2022-09-13T02:06:16.625Z,56.15
2022-09-13T02:07:16.613Z,55.85
2022-09-13T02:08:16.605Z,55.93
2022-09-13T02:09:16.591Z,54.68
2022-09-13T02:10:16.574Z,53.86
2022-09-13T02:11:16.577Z,54.55
2022-09-13T02:12:16.555Z,53.96
2022-09-13T02:13:16.548Z,54.78
2022-09-13T02:14:16.539Z,54.68
2022-09-13T02:15:16.527Z,54.71
2022-09-13T02:16:16.523Z,55.08
2022-09-13T02:17:16.504Z,53.96
2022-09-13T02:18:16.495Z,54.97
2022-09-13T02:19:16.493Z,55.76
2022-09-13T02:20:16.471Z,57.1
2022-09-13T02:21:16.465Z,58.36
2022-09-13T02:22:16.459Z,58.75
2022-09-13T02:23:16.438Z,58.53
2022-09-13T02:24:16.431Z,57.93
2022-09-13T02:25:16.428Z,59.51
2022-09-13T02:26:16.404Z,61.43
2022-09-13T02:27:16.399Z,61.43
2022-09-13T02:28:16.387Z,59.35
2022-09-13T02:29:16.371Z,57.9
2022-09-13T02:30:16.361Z,57.17
2022-09-13T02:31:16.365Z,57.07
2022-09-13T02:32:16.345Z,57.4
2022-09-13T02:33:16.331Z,58.85
2022-09-13T02:34:16.319Z,60
2022-09-13T02:35:16.307Z,60.11
2022-09-13T02:36:16.303Z,60.08
2022-09-13T02:37:16.299Z,59.98
2022-09-13T02:38:16.280Z,61.1
2022-09-13T02:39:16.266Z,60.97
2022-09-13T02:40:16.263Z,60.97
2022-09-13T02:41:16.247Z,60.61
2022-09-13T02:42:16.240Z,61.08
2022-09-13T02:43:16.221Z,60.15
2022-09-13T02:44:16.215Z,59.19
2022-09-13T02:45:16.203Z,58.87
2022-09-13T02:46:16.196Z,58.14
2022-09-13T02:47:16.183Z,57.32
2022-09-13T02:48:16.177Z,57.22
2022-09-13T02:49:16.164Z,56.92
2022-09-13T02:50:16.151Z,57.12
2022-09-13T02:51:16.140Z,57.09
2022-09-13T02:52:16.136Z,57.29
2022-09-13T02:53:16.120Z,56.72
2022-09-13T02:54:16.121Z,57.02
2022-09-13T02:55:16.103Z,57.42
2022-09-13T02:56:16.089Z,56.99
2022-09-13T02:57:16.074Z,57.09
2022-09-13T02:58:16.064Z,56.99
2022-09-13T02:59:16.063Z,56.77
2022-09-13T03:00:16.041Z,56.87
2022-09-13T03:01:16.035Z,56.79
2022-09-13T03:02:16.025Z,57.22
2022-09-13T03:03:16.008Z,57.32
2022-09-13T03:04:16.000Z,58.44
2022-09-13T03:05:16.003Z,58.64
2022-09-13T03:06:15.988Z,59.14
2022-09-13T03:07:15.971Z,60.32
2022-09-13T03:08:15.957Z,61.05
2022-09-13T03:09:15.948Z,61.47
2022-09-13T03:10:15.936Z,61.77
2022-09-13T03:11:15.923Z,62.96
2022-09-13T03:12:15.916Z,63.23
2022-09-13T03:13:15.902Z,63.4
2022-09-13T03:14:15.891Z,62.27
2022-09-13T03:15:15.880Z,61.98
2022-09-13T03:16:15.872Z,62.67
2022-09-13T03:17:15.863Z,62.48
2022-09-13T03:18:15.858Z,62.9
2022-09-13T03:19:15.839Z,62.48
2022-09-13T03:20:15.832Z,62.97
2022-09-13T03:21:15.821Z,62.87
2022-09-13T03:22:15.808Z,63.36
2022-09-13T03:23:15.804Z,64.96
2022-09-13T03:24:15.789Z,65.09
2022-09-13T03:25:15.775Z,64.76
2022-09-13T03:26:15.762Z,64.46
2022-09-13T03:27:15.768Z,64.5
2022-09-13T03:28:15.753Z,63.67
2022-09-13T03:29:15.753Z,62.94
2022-09-13T03:30:15.724Z,62.12
2022-09-13T03:31:15.723Z,60.46
2022-09-13T03:32:15.701Z,59.47
2022-09-13T03:33:15.689Z,60.19
2022-09-13T03:34:15.699Z,59.66
2022-09-13T03:35:15.667Z,58.51
2022-09-13T03:36:15.656Z,58.09
2022-09-13T03:37:15.643Z,58.23
2022-09-13T03:38:15.634Z,57.34
2022-09-13T03:39:15.627Z,58.13
2022-09-13T03:40:15.619Z,57.64
2022-09-13T03:41:15.601Z,57.66
2022-09-13T03:42:15.595Z,56.94
2022-09-13T03:43:15.584Z,57.01
2022-09-13T03:44:15.571Z,57.11
2022-09-13T03:45:15.565Z,56.29
2022-09-13T03:46:15.556Z,55.91
2022-09-13T03:47:15.539Z,57.06
2022-09-13T03:48:15.530Z,58.31
2022-09-13T03:49:15.520Z,58.74
2022-09-13T03:50:15.517Z,60.19
2022-09-13T03:51:15.496Z,61.65
2022-09-13T03:52:15.497Z,62.48
2022-09-13T03:53:15.476Z,63.96
2022-09-13T03:54:15.464Z,64.96
2022-09-13T03:55:15.517Z,64.59
2022-09-13T03:56:15.441Z,65.52
2022-09-13T03:57:15.433Z,66.46
2022-09-13T03:58:15.425Z,67.12
2022-09-13T03:59:15.413Z,68.55
2022-09-13T04:00:15.404Z,68.76
2022-09-13T04:01:15.389Z,68.99
2022-09-13T04:02:15.381Z,69.92
2022-09-13T04:03:15.368Z,69.53
2022-09-13T04:04:15.359Z,69.26
2022-09-13T04:05:15.345Z,68.55
2022-09-13T04:06:15.337Z,68.82
2022-09-13T04:07:15.323Z,66.05
2022-09-13T04:08:15.322Z,66.72
2022-09-13T04:09:15.305Z,65.92
2022-09-13T04:10:15.290Z,65.39
2022-09-13T04:11:15.283Z,65.09
2022-09-13T04:12:15.273Z,66.05
2022-09-13T04:13:15.264Z,66.89
2022-09-13T04:14:15.257Z,66.55
2022-09-13T04:15:15.238Z,66.72
2022-09-13T04:16:15.230Z,66.39
2022-09-13T04:17:15.225Z,66.59
2022-09-13T04:18:15.204Z,66.92
2022-09-13T04:19:15.194Z,67.22
2022-09-13T04:20:15.190Z,66.92
2022-09-13T04:21:15.177Z,67.05
2022-09-13T04:22:15.163Z,68.49
2022-09-13T04:23:15.154Z,67.62
2022-09-13T04:24:15.146Z,67.62
2022-09-13T04:25:15.140Z,67.39
2022-09-13T04:26:15.121Z,66.69
2022-09-13T04:27:15.111Z,66.62
2022-09-13T04:28:15.097Z,67.45
2022-09-13T04:29:15.092Z,67.65
2022-09-13T04:30:15.083Z,67.82
2022-09-13T04:31:15.065Z,67.42
2022-09-13T04:32:15.059Z,67.82
2022-09-13T04:33:15.043Z,67.22
2022-09-13T04:34:15.034Z,67.85
2022-09-13T04:35:15.021Z,68.79
2022-09-13T04:36:15.012Z,69.19
2022-09-13T04:37:15.008Z,69.12
2022-09-13T04:38:14.993Z,68.59
2022-09-13T04:39:14.979Z,68.79
2022-09-13T04:40:14.968Z,69.29
2022-09-13T04:41:14.958Z,69.29
2022-09-13T04:42:14.951Z,68.89
2022-09-13T04:43:14.958Z,69.42
2022-09-13T04:44:14.939Z,70.36
2022-09-13T04:45:14.931Z,71.4
2022-09-13T04:46:14.908Z,71.5
2022-09-13T04:47:14.892Z,71.26
2022-09-13T04:48:14.883Z,70.23
2022-09-13T04:49:14.877Z,69.82
2022-09-13T04:50:14.866Z,70.12
2022-09-13T04:51:14.855Z,69.92
2022-09-13T04:52:14.846Z,69.69
2022-09-13T04:53:14.831Z,69.09
2022-09-13T04:54:14.823Z,67.72
2022-09-13T04:55:14.817Z,66.99
2022-09-13T04:56:14.817Z,66.75
2022-09-13T04:57:14.788Z,66.52
2022-09-13T04:58:14.777Z,66.13
2022-09-13T04:59:14.772Z,65.83
2022-09-13T05:00:14.756Z,65.29
2022-09-13T05:01:14.764Z,65.09
2022-09-13T05:02:14.733Z,66.16
2022-09-13T05:03:14.733Z,66.99
2022-09-13T05:04:14.717Z,67.22
2022-09-13T05:05:14.705Z,68.85
2022-09-13T05:06:14.695Z,68.52
2022-09-13T05:07:14.692Z,68.85
2022-09-13T05:08:14.692Z,68.12
2022-09-13T05:09:14.658Z,68.26
2022-09-13T05:10:14.649Z,68.76
2022-09-13T05:11:14.638Z,69.59
2022-09-13T05:12:14.627Z,69.16
2022-09-13T05:13:14.621Z,68.76
2022-09-13T05:14:14.607Z,68.96
2022-09-13T05:15:14.594Z,68.85
2022-09-13T05:16:14.587Z,69.35
2022-09-13T05:17:14.574Z,69.66
2022-09-13T05:18:14.586Z,69.16
2022-09-13T05:19:14.566Z,68.52
2022-09-13T05:20:14.541Z,68.73
2022-09-13T05:21:14.538Z,68.76
2022-09-13T05:22:14.578Z,69.19
2022-09-13T05:23:14.509Z,70.09
2022-09-13T05:24:14.500Z,71.06
2022-09-13T05:25:14.493Z,71.8
2022-09-13T05:26:14.477Z,72.74
2022-09-13T05:27:14.470Z,73.14
2022-09-13T05:28:14.454Z,73.74
2022-09-13T05:29:14.447Z,72.94
2022-09-13T05:30:14.483Z,72.74
2022-09-13T05:31:14.422Z,72.71
2022-09-13T05:32:14.416Z,73.1
2022-09-13T05:33:14.403Z,72.71
2022-09-13T05:34:15.182Z,72.9
2022-09-13T05:35:14.385Z,72.71
2022-09-13T05:36:14.369Z,73.21
2022-09-13T05:37:14.360Z,72.37
2022-09-13T05:38:14.349Z,71.33
2022-09-13T05:39:14.344Z,71.93
2022-09-13T05:40:14.337Z,70.89
2022-09-13T05:41:14.330Z,70.26
2022-09-13T05:42:14.310Z,70.46
2022-09-13T05:43:14.300Z,69.73
2022-09-13T05:44:14.287Z,69.73
2022-09-13T05:45:14.274Z,69.02
2022-09-13T05:46:14.274Z,68.92
2022-09-13T05:47:14.252Z,68.89
2022-09-13T05:48:14.247Z,68.79
2022-09-13T05:49:14.231Z,68.52
2022-09-13T05:50:14.223Z,68.89
2022-09-13T05:51:14.215Z,66.52
2022-09-13T05:52:14.203Z,66.19
2022-09-13T05:53:14.189Z,65.96
2022-09-13T05:54:14.181Z,65.16
2022-09-13T05:55:14.171Z,66.22
2022-09-13T05:56:14.157Z,66.59
2022-09-13T05:57:14.147Z,66.19
2022-09-13T05:58:14.140Z,65.92
2022-09-13T05:59:14.128Z,65.92
2022-09-13T06:00:14.114Z,65.69
2022-09-13T06:01:14.110Z,66.13
2022-09-13T06:02:14.143Z,66.75
2022-09-13T06:03:14.085Z,68.69
2022-09-13T06:04:14.073Z,68.73
2022-09-13T06:05:14.058Z,68.52
2022-09-13T06:06:14.052Z,68.82
2022-09-13T06:07:14.037Z,68.73
2022-09-13T06:08:14.026Z,68.42
2022-09-13T06:09:14.020Z,68.39
2022-09-13T06:10:14.010Z,68.85
2022-09-13T06:11:13.999Z,70.63
2022-09-13T06:12:13.997Z,71.26
2022-09-13T06:13:13.984Z,71.97
2022-09-13T06:14:13.999Z,71.77
2022-09-13T06:15:13.976Z,71.56
2022-09-13T06:16:13.950Z,71.13
2022-09-13T06:17:13.967Z,71.09
2022-09-13T06:18:13.943Z,70.39
2022-09-13T06:19:13.914Z,70.59
2022-09-13T06:20:13.901Z,70.16
2022-09-13T06:21:13.890Z,70.16
2022-09-13T06:22:13.885Z,69.12
2022-09-13T06:23:13.920Z,69.02
2022-09-13T06:24:13.857Z,68.62
2022-09-13T06:25:13.843Z,69.02
2022-09-13T06:26:13.838Z,68.92
2022-09-13T06:27:13.827Z,68.26
2022-09-13T06:28:13.810Z,68.49
2022-09-13T06:29:13.806Z,68.19
2022-09-13T06:30:13.800Z,68.09
2022-09-13T06:31:13.782Z,68.66
2022-09-13T06:32:13.768Z,67.76
2022-09-13T06:33:13.786Z,67.05
2022-09-13T06:34:13.748Z,66.32
2022-09-13T06:35:13.739Z,66.13
2022-09-13T06:36:13.729Z,66.39
2022-09-13T06:37:13.721Z,66.22
2022-09-13T06:38:13.707Z,66.09
2022-09-13T06:39:13.700Z,66.79
2022-09-13T06:40:14.684Z,66.26
2022-09-13T06:41:13.674Z,64.96
2022-09-13T06:42:13.695Z,65.03
2022-09-13T06:43:13.657Z,64.8
2022-09-13T06:44:13.648Z,64.4
2022-09-13T06:45:13.649Z,63.87
2022-09-13T06:46:13.648Z,63.24
2022-09-13T06:47:13.612Z,63.44
2022-09-13T06:48:13.599Z,63.57
2022-09-13T06:49:13.594Z,65.03
2022-09-13T06:50:13.602Z,66.89
2022-09-13T06:51:13.574Z,66.19
2022-09-13T06:52:13.574Z,66.63
2022-09-13T06:53:13.542Z,67.63
2022-09-13T06:54:13.537Z,67.36
2022-09-13T06:55:13.523Z,67.63
2022-09-13T06:56:13.515Z,67.82
2022-09-13T06:57:13.526Z,67.63
2022-09-13T06:58:13.505Z,67.52
2022-09-13T06:59:13.481Z,66.69
2022-09-13T07:00:13.472Z,65.93
2022-09-13T07:01:13.460Z,65.43
2022-09-13T07:02:13.452Z,64.54
2022-09-13T07:03:13.450Z,63.81
2022-09-13T07:04:13.451Z,61.6
2022-09-13T07:05:13.415Z,59.45
2022-09-13T07:06:13.409Z,58.95
2022-09-13T07:07:13.395Z,58.33
2022-09-13T07:08:13.389Z,58.1
2022-09-13T07:09:13.394Z,57.38
2022-09-13T07:10:13.371Z,56.91
2022-09-13T07:11:13.353Z,56.91
2022-09-13T07:12:13.355Z,57.31
2022-09-13T07:13:13.332Z,58.23
2022-09-13T07:14:13.318Z,59.48
2022-09-13T07:15:13.324Z,59.21
2022-09-13T07:16:13.295Z,60.33
2022-09-13T07:17:13.287Z,60.53
2022-09-13T07:18:13.328Z,60.6
2022-09-13T07:19:13.261Z,59.81
2022-09-13T07:20:13.256Z,59.81
2022-09-13T07:21:13.241Z,59.38
2022-09-13T07:22:13.229Z,58.98
2022-09-13T07:23:13.222Z,58.45
2022-09-13T07:24:13.209Z,57.29
2022-09-13T07:25:13.197Z,54.32
2022-09-13T07:26:13.197Z,52.36
2022-09-13T07:27:13.175Z,50.71
2022-09-13T07:28:13.170Z,49.26
2022-09-13T07:29:13.160Z,47.83
2022-09-13T07:30:13.147Z,46.36
2022-09-13T07:31:13.143Z,45.34
2022-09-13T07:32:13.140Z,44.37
2022-09-13T07:33:13.115Z,45.06
2022-09-13T07:34:13.102Z,44.89
2022-09-13T07:35:13.094Z,45.42
2022-09-13T07:36:13.091Z,45.67
2022-09-13T07:37:13.072Z,47.78
2022-09-13T07:38:13.058Z,47.94
2022-09-13T07:39:13.059Z,49.49
2022-09-13T07:40:13.034Z,51.54
2022-09-13T07:41:13.030Z,52.78
2022-09-13T07:42:13.024Z,53.7
2022-09-13T07:43:13.009Z,54.13
2022-09-13T07:44:12.992Z,54.32
2022-09-13T07:45:12.990Z,54.35
2022-09-13T07:46:12.981Z,53.96
2022-09-13T07:47:12.972Z,54.15
2022-09-13T07:48:12.966Z,54.94
2022-09-13T07:49:12.948Z,54.92
2022-09-13T07:50:12.932Z,54.85
2022-09-13T07:51:12.924Z,55.36
2022-09-13T07:52:12.915Z,55.36
2022-09-13T07:53:12.925Z,55.87
2022-09-13T07:54:12.887Z,55.36
2022-09-13T07:55:12.887Z,55.76
2022-09-13T07:56:12.865Z,56.29
2022-09-13T07:57:12.859Z,57.31
2022-09-13T07:58:12.848Z,56.74
2022-09-13T07:59:12.844Z,56.94
2022-09-13T08:00:12.831Z,57.53
2022-09-13T08:01:12.821Z,58.06
2022-09-13T08:02:12.818Z,58.16
2022-09-13T08:03:12.797Z,58.36
2022-09-13T08:04:12.786Z,58.36
2022-09-13T08:05:12.789Z,58.16
2022-09-13T08:06:12.760Z,58.06
2022-09-13T08:07:12.748Z,58.45
2022-09-13T08:08:12.739Z,58.16
2022-09-13T08:09:12.734Z,58.58
2022-09-13T08:10:12.718Z,58.65
2022-09-13T08:11:12.714Z,58.16
2022-09-13T08:12:12.698Z,58.06
2022-09-13T08:13:12.699Z,57.86
2022-09-13T08:14:12.677Z,58.13
2022-09-13T08:15:12.663Z,58.03
2022-09-13T08:16:12.656Z,57.9
2022-09-13T08:17:12.646Z,57.31
2022-09-13T08:18:12.654Z,56.91
2022-09-13T08:19:12.625Z,57.34
2022-09-13T08:20:12.610Z,56.84
2022-09-13T08:21:12.597Z,57.36
2022-09-13T08:22:12.599Z,57.46
2022-09-13T08:23:12.582Z,57.46
2022-09-13T08:24:12.578Z,57.34
2022-09-13T08:25:12.558Z,57.14
2022-09-13T08:26:12.555Z,57.14
2022-09-13T08:27:12.545Z,57.26
2022-09-13T08:28:12.531Z,57.46
2022-09-13T08:29:12.543Z,57.56
2022-09-13T08:30:12.504Z,57.36
2022-09-13T08:31:12.517Z,57.56
2022-09-13T08:32:12.484Z,57.26
2022-09-13T08:33:12.476Z,57.96
2022-09-13T08:34:12.460Z,58.51
2022-09-13T08:35:12.454Z,59.01
2022-09-13T08:36:12.462Z,59.31
2022-09-13T08:37:12.430Z,58.51
2022-09-13T08:38:12.416Z,59.11
2022-09-13T08:39:12.411Z,59.21
2022-09-13T08:40:12.394Z,59.18
2022-09-13T08:41:12.392Z,58.88
2022-09-13T08:42:12.396Z,58.36
2022-09-13T08:43:12.390Z,58.36
2022-09-13T08:44:12.353Z,58.39
2022-09-13T08:45:12.439Z,58.69
2022-09-13T08:46:12.336Z,58.28
2022-09-13T08:47:12.326Z,57.76
2022-09-13T08:48:12.311Z,58.28
2022-09-13T08:49:12.305Z,58.48
2022-09-13T08:50:12.287Z,58.81
2022-09-13T08:51:12.289Z,58.61
2022-09-13T08:52:12.288Z,59.21
2022-09-13T08:53:12.257Z,59.41
2022-09-13T08:54:12.246Z,59.83
2022-09-13T08:55:12.232Z,59.94
2022-09-13T08:56:12.242Z,59.74
2022-09-13T08:57:12.221Z,60.53
2022-09-13T08:58:12.330Z,60.24
2022-09-13T08:59:12.190Z,60.63
2022-09-13T09:00:12.182Z,59.91
2022-09-13T09:01:12.169Z,59.28
2022-09-13T09:02:12.157Z,59.31
2022-09-13T09:03:12.154Z,59.51
2022-09-13T09:04:12.140Z,60
2022-09-13T09:05:12.180Z,60.11
2022-09-13T09:06:12.117Z,59.88
2022-09-13T09:07:12.145Z,60.08
2022-09-13T09:08:12.103Z,59.78
2022-09-13T09:09:12.088Z,59.88
2022-09-13T09:10:12.078Z,59.18
2022-09-13T09:11:12.062Z,59.38
2022-09-13T09:12:12.067Z,60.4
2022-09-13T09:13:12.043Z,59.7
2022-09-13T09:14:12.028Z,59.7
2022-09-13T09:15:12.021Z,59.98
2022-09-13T09:16:12.036Z,59.28
2022-09-13T09:17:11.999Z,59.58
2022-09-13T09:18:11.997Z,58.98
2022-09-13T09:19:11.991Z,59.15
2022-09-13T09:20:11.988Z,59.15
2022-09-13T09:21:11.959Z,58.83
2022-09-13T09:22:11.948Z,58.33
2022-09-13T09:23:11.949Z,58.53
2022-09-13T09:24:11.950Z,58.23
2022-09-13T09:25:11.926Z,57.83
2022-09-13T09:26:11.912Z,58.26
2022-09-13T09:27:11.902Z,58.56
2022-09-13T09:28:11.888Z,59.38
2022-09-13T09:29:11.872Z,60.27
2022-09-13T09:30:11.863Z,59.65
2022-09-13T09:31:11.920Z,59.35
2022-09-13T09:32:11.839Z,59.15
2022-09-13T09:33:11.852Z,59.15
2022-09-13T09:34:11.892Z,59.05
2022-09-13T09:35:11.815Z,58.53
2022-09-13T09:36:11.798Z,58.92
2022-09-13T09:37:11.793Z,59.72
2022-09-13T09:38:11.796Z,59.32
2022-09-13T09:39:11.762Z,61.11
2022-09-13T09:40:11.756Z,60.61
2022-09-13T09:41:11.786Z,61.27
2022-09-13T09:42:11.881Z,63.22
2022-09-13T09:43:11.724Z,64.31
2022-09-13T09:44:11.713Z,64.81
2022-09-13T09:45:11.708Z,64.51
2022-09-13T09:46:11.722Z,63.82
2022-09-13T09:47:11.680Z,64.81
2022-09-13T09:48:11.666Z,64.18
2022-09-13T09:49:11.678Z,63.79
2022-09-13T09:50:11.667Z,64.28
2022-09-13T09:51:11.640Z,64.22
2022-09-13T09:52:11.621Z,64.48
2022-09-13T09:53:11.624Z,64.15
2022-09-13T09:54:11.617Z,63.85
2022-09-13T09:55:11.592Z,63.66
2022-09-13T09:56:11.583Z,63.85
2022-09-13T09:57:11.627Z,63.16
2022-09-13T09:58:11.560Z,62.66
2022-09-13T09:59:11.550Z,63.36
2022-09-13T10:00:11.743Z,63.46
2022-09-13T10:01:11.530Z,63.36
2022-09-13T10:02:11.519Z,63.13
2022-09-13T10:03:11.552Z,63.13
2022-09-13T10:04:11.516Z,63.23
2022-09-13T10:05:11.488Z,62.63
2022-09-13T10:06:11.482Z,63.13
2022-09-13T10:07:11.463Z,62.34
2022-09-13T10:08:11.491Z,62.13
2022-09-13T10:09:11.442Z,62.63
2022-09-13T10:10:11.432Z,63.26
2022-09-13T10:11:11.433Z,62.99
2022-09-13T10:12:11.408Z,63.39
2022-09-13T10:13:11.398Z,63.19
2022-09-13T10:14:11.391Z,62.66
2022-09-13T10:15:11.400Z,62.96
2022-09-13T10:16:11.371Z,62.86
2022-09-13T10:17:11.397Z,62.56
2022-09-13T10:18:11.349Z,62.76
2022-09-13T10:19:11.335Z,62.96
2022-09-13T10:20:11.325Z,62.96
2022-09-13T10:21:11.316Z,63.26
2022-09-13T10:22:11.303Z,63.66
2022-09-13T10:23:11.323Z,63.29
2022-09-13T10:24:11.289Z,63.36
2022-09-13T10:25:11.310Z,63.19
2022-09-13T10:26:11.266Z,63.49
2022-09-13T10:27:11.251Z,63.36
2022-09-13T10:28:11.239Z,62.73
2022-09-13T10:29:11.227Z,62.73
2022-09-13T10:30:11.219Z,62.4
2022-09-13T10:31:11.224Z,61.61
2022-09-13T10:32:11.218Z,62.04
2022-09-13T10:33:11.192Z,63.16
2022-09-13T10:34:11.195Z,62.93
2022-09-13T10:35:11.167Z,63.36
2022-09-13T10:36:11.162Z,64.88
2022-09-13T10:37:11.140Z,64.18
2022-09-13T10:38:11.209Z,63.89
2022-09-13T10:39:11.122Z,63.85
2022-09-13T10:40:11.121Z,64.65
2022-09-13T10:41:11.099Z,63.85
2022-09-13T10:42:11.090Z,63.85
2022-09-13T10:43:11.081Z,63.3
2022-09-13T10:44:11.075Z,63.4
2022-09-13T10:45:11.059Z,62.8
2022-09-13T10:46:11.055Z,62.87
2022-09-13T10:47:11.046Z,63.49
2022-09-13T10:48:11.050Z,63.3
2022-09-13T10:49:11.022Z,63.04
2022-09-13T10:50:11.021Z,63.34
2022-09-13T10:51:10.989Z,62.77
2022-09-13T10:52:10.982Z,63.27
2022-09-13T10:53:10.969Z,63.46
2022-09-13T10:54:10.971Z,63.6
2022-09-13T10:55:10.957Z,63.57
2022-09-13T10:56:10.945Z,63.2
2022-09-13T10:57:10.940Z,63.17
2022-09-13T10:58:10.944Z,62.84
2022-09-13T10:59:10.924Z,62.71
2022-09-13T11:00:10.895Z,61.13
2022-09-13T11:01:10.906Z,58.87
2022-09-13T11:02:10.882Z,57.03
2022-09-13T11:03:10.864Z,57.1
2022-09-13T11:04:10.858Z,57.4
2022-09-13T11:05:10.884Z,56.63
2022-09-13T11:06:10.829Z,57.68
2022-09-13T11:07:10.825Z,58.3
2022-09-13T11:08:10.850Z,59.25
2022-09-13T11:09:10.803Z,59.65
2022-09-13T11:10:10.794Z,59.35
2022-09-13T11:11:10.803Z,59.75
2022-09-13T11:12:10.776Z,60.24
2022-09-13T11:13:10.760Z,61.19
2022-09-13T11:14:10.778Z,61.52
2022-09-13T11:15:10.747Z,62.71
2022-09-13T11:16:10.729Z,62.21
2022-09-13T11:17:11.629Z,62.45
2022-09-13T11:18:10.704Z,62.87
2022-09-13T11:19:10.699Z,63.67
2022-09-13T11:20:10.685Z,63.46
2022-09-13T11:21:10.679Z,64.19
2022-09-13T11:22:10.740Z,64.29
2022-09-13T11:23:10.662Z,64.09
2022-09-13T11:24:10.639Z,64.49
2022-09-13T11:25:10.635Z,63.86
2022-09-13T11:26:10.628Z,64.06
2022-09-13T11:27:10.605Z,64.19
2022-09-13T11:28:10.618Z,64.59
2022-09-13T11:29:10.611Z,64.82
2022-09-13T11:30:10.575Z,64.69
2022-09-13T11:31:10.559Z,64.82
2022-09-13T11:32:10.552Z,65.91
2022-09-13T11:33:10.556Z,65.52
2022-09-13T11:34:10.532Z,65.55
2022-09-13T11:35:10.520Z,65.28
2022-09-13T11:36:10.511Z,65.61
2022-09-13T11:37:10.514Z,65.81
2022-09-13T11:38:10.511Z,65.52
2022-09-13T11:39:10.523Z,65.22
2022-09-13T11:40:10.468Z,65.94
2022-09-13T11:41:10.469Z,66.21
2022-09-13T11:42:10.439Z,65.31
2022-09-13T11:43:10.439Z,65.68
2022-09-13T11:44:10.442Z,65.88
2022-09-13T11:45:10.417Z,65.52
2022-09-13T11:46:10.414Z,65.72
2022-09-13T11:47:10.405Z,65.81
2022-09-13T11:48:10.380Z,65.52
2022-09-13T11:49:10.376Z,65.52
2022-09-13T11:50:10.359Z,65.48
2022-09-13T11:51:10.344Z,65.39
2022-09-13T11:52:10.338Z,65.78
2022-09-13T11:53:10.330Z,66.21
2022-09-13T11:54:10.346Z,66.28
2022-09-13T11:55:10.303Z,64.89
2022-09-13T11:56:10.293Z,65.78
2022-09-13T11:57:10.278Z,65.35
2022-09-13T11:58:10.268Z,65.68
2022-09-13T11:59:10.269Z,64.79
2022-09-13T12:00:10.249Z,65.58
2022-09-13T12:01:10.233Z,65.48
2022-09-13T12:02:10.229Z,65.98
2022-09-13T12:03:10.219Z,65.02
2022-09-13T12:04:10.206Z,65.98
2022-09-13T12:05:10.196Z,65.09
2022-09-13T12:06:10.185Z,64.29
2022-09-13T12:07:10.225Z,65.98
2022-09-13T12:08:10.161Z,65.28
2022-09-13T12:09:10.157Z,65.52
2022-09-13T12:10:10.145Z,66.28
2022-09-13T12:11:10.135Z,66.38
2022-09-13T12:12:10.123Z,65.68
2022-09-13T12:13:10.107Z,66.18
2022-09-13T12:14:10.097Z,66.18
2022-09-13T12:15:10.091Z,65.39
2022-09-13T12:16:10.134Z,64.76
2022-09-13T12:17:11.083Z,64.73
2022-09-13T12:18:10.074Z,64.2
2022-09-13T12:19:10.049Z,64.5
2022-09-13T12:20:10.034Z,64.03
2022-09-13T12:21:10.036Z,64.36
2022-09-13T12:22:10.020Z,64.86
2022-09-13T12:23:10.011Z,64.79
2022-09-13T12:24:09.993Z,64.95
2022-09-13T12:25:09.988Z,65.16
2022-09-13T12:26:09.976Z,65.28
2022-09-13T12:27:09.977Z,65.98
2022-09-13T12:28:09.950Z,65.72
2022-09-13T12:29:09.948Z,66.21
2022-09-13T12:30:09.956Z,65.61
2022-09-13T12:31:09.918Z,65.81
2022-09-13T12:32:09.912Z,65.88
2022-09-13T12:33:09.901Z,64.98
2022-09-13T12:34:09.894Z,65.55
2022-09-13T12:35:09.876Z,65.98
2022-09-13T12:36:09.882Z,66.08
2022-09-13T12:37:09.861Z,66.18
2022-09-13T12:38:09.852Z,66.25
2022-09-13T12:39:09.837Z,64.53
2022-09-13T12:40:09.870Z,64.7
2022-09-13T12:41:09.815Z,64.1
2022-09-13T12:42:09.806Z,64.56
2022-09-13T12:43:09.807Z,64.67
2022-09-13T12:44:09.785Z,64.27
2022-09-13T12:45:09.771Z,64.1
2022-09-13T12:46:09.768Z,64
2022-09-13T12:47:09.757Z,64.3
2022-09-13T12:48:09.743Z,64.92
2022-09-13T12:49:09.732Z,64.99
2022-09-13T12:50:09.721Z,65.22
2022-09-13T12:51:09.741Z,65.52
2022-09-13T12:52:09.748Z,65.82
2022-09-13T12:53:09.691Z,65.92
2022-09-13T12:54:09.683Z,65.59